createdAt,value
2019-04-27T00:00:11.953Z,15.18
2019-04-27T00:03:01.880Z,15.17
2019-04-27T00:05:40.556Z,15.47
2019-04-27T00:08:35.618Z,15.41
2019-04-27T00:11:05.043Z,15.37
2019-04-27T00:13:40.735Z,15.35
2019-04-27T00:16:11.362Z,15.11
2019-04-27T00:18:49.739Z,15.21
2019-04-27T00:21:20.182Z,15.16
2019-04-27T00:23:53.149Z,15.15
2019-04-27T00:26:24.314Z,14.87
2019-04-27T00:28:57.097Z,14.72
2019-04-27T00:31:28.545Z,14.69
2019-04-27T00:33:59.690Z,14.57
2019-04-27T00:36:38.514Z,14.52
2019-04-27T00:39:15.294Z,14.43
2019-04-27T00:41:46.538Z,14.80
2019-04-27T00:44:17.884Z,14.71
2019-04-27T00:46:49.129Z,14.73
2019-04-27T00:49:20.581Z,14.83
2019-04-27T00:51:53.628Z,14.93
2019-04-27T00:54:25.838Z,14.71
2019-04-27T00:57:03.203Z,14.65
2019-04-27T00:59:53.029Z,14.87
2019-04-27T01:02:37.987Z,14.53
2019-04-27T01:05:13.931Z,14.23
2019-04-27T01:07:45.280Z,14.03
2019-04-27T01:10:17.144Z,14.28
2019-04-27T01:12:48.388Z,14.20
2019-04-27T01:15:20.079Z,14.24
2019-04-27T01:17:51.021Z,14.16
2019-04-27T01:20:22.637Z,14.15
2019-04-27T01:22:54.191Z,14.01
2019-04-27T01:25:28.926Z,13.91
2019-04-27T01:28:01.910Z,14.12
2019-04-27T01:30:48.926Z,14.04
2019-04-27T01:33:20.269Z,13.94
2019-04-27T01:35:51.924Z,13.95
2019-04-27T01:38:23.272Z,14.00
2019-04-27T01:40:54.723Z,13.92
2019-04-27T01:43:26.173Z,13.91
2019-04-27T01:45:58.696Z,13.87
2019-04-27T01:48:31.224Z,13.87
2019-04-27T01:51:02.779Z,14.08
2019-04-27T01:53:34.330Z,14.07
2019-04-27T01:56:05.996Z,13.91
2019-04-27T01:58:39.270Z,13.86
2019-04-27T02:01:21.689Z,13.70
2019-04-27T02:04:12.392Z,13.57
2019-04-27T02:06:45.683Z,13.56
2019-04-27T02:09:18.851Z,13.32
2019-04-27T02:11:50.326Z,13.18
2019-04-27T02:14:21.776Z,13.35
2019-04-27T02:16:53.328Z,13.56
2019-04-27T02:19:24.794Z,13.81
2019-04-27T02:21:56.433Z,13.80
2019-04-27T02:24:28.828Z,13.66
2019-04-27T02:26:59.580Z,13.61
2019-04-27T02:29:50.543Z,13.54
2019-04-27T02:32:29.481Z,13.60
2019-04-27T02:35:02.679Z,13.48
2019-04-27T02:37:34.126Z,13.44
2019-04-27T02:40:30.459Z,13.64
2019-04-27T02:43:01.287Z,13.89
2019-04-27T02:45:33.557Z,13.98
2019-04-27T02:48:05.010Z,13.86
2019-04-27T02:50:36.456Z,13.78
2019-04-27T02:53:10.834Z,13.34
2019-04-27T02:55:41.818Z,13.23
2019-04-27T02:58:13.472Z,13.18
2019-04-27T03:00:44.822Z,13.14
2019-04-27T03:03:16.178Z,13.21
2019-04-27T03:05:50.207Z,13.60
2019-04-27T03:08:20.911Z,13.58
2019-04-27T03:10:52.262Z,13.60
2019-04-27T03:13:30.402Z,13.59
2019-04-27T03:16:03.148Z,13.69
2019-04-27T03:18:36.240Z,14.16
2019-04-27T03:21:12.711Z,14.45
2019-04-27T03:23:42.109Z,14.44
2019-04-27T03:26:22.467Z,14.14
2019-04-27T03:28:55.247Z,14.14
2019-04-27T03:31:26.597Z,13.78
2019-04-27T03:34:04.317Z,13.86
2019-04-27T03:36:31.969Z,13.85
2019-04-27T03:39:03.101Z,13.88
2019-04-27T03:41:34.140Z,13.99
2019-04-27T03:44:05.692Z,14.02
2019-04-27T03:46:39.504Z,14.21
2019-04-27T03:49:27.339Z,14.37
2019-04-27T03:51:45.687Z,14.59
2019-04-27T03:54:21.656Z,14.77
2019-04-27T03:56:53.089Z,14.94
2019-04-27T03:59:26.276Z,15.21
2019-04-27T04:01:59.053Z,15.12
2019-04-27T04:04:32.782Z,15.09
2019-04-27T04:07:14.551Z,15.18
2019-04-27T04:09:45.811Z,15.07
2019-04-27T04:12:21.962Z,15.31
2019-04-27T04:14:53.309Z,15.49
2019-04-27T04:17:25.987Z,15.88
2019-04-27T04:20:01.206Z,16.01
2019-04-27T04:22:32.377Z,16.08
2019-04-27T04:25:04.240Z,16.13
2019-04-27T04:27:35.379Z,16.27
2019-04-27T04:30:09.962Z,16.77
2019-04-27T04:32:40.116Z,16.77
2019-04-27T04:35:23.875Z,16.68
2019-04-27T04:37:55.313Z,16.85
2019-04-27T04:40:30.645Z,16.94
2019-04-27T04:43:04.459Z,17.04
2019-04-27T04:45:39.332Z,17.39
2019-04-27T04:48:14.830Z,17.49
2019-04-27T04:50:45.975Z,16.71
2019-04-27T04:53:20.640Z,16.38
2019-04-27T04:55:51.126Z,16.29
2019-04-27T04:58:22.371Z,16.38
2019-04-27T05:00:53.822Z,16.46
2019-04-27T05:03:25.168Z,16.99
2019-04-27T05:05:58.668Z,17.14
2019-04-27T05:08:30.327Z,16.77
2019-04-27T05:11:01.103Z,17.00
2019-04-27T05:13:32.203Z,17.37
2019-04-27T05:16:03.516Z,17.48
2019-04-27T05:18:35.315Z,17.72
2019-04-27T05:21:08.785Z,18.62
2019-04-27T05:23:39.849Z,19.90
2019-04-27T05:26:11.401Z,20.75
2019-04-27T05:28:44.287Z,21.55
2019-04-27T05:31:15.734Z,21.24
2019-04-27T05:33:48.871Z,21.38
2019-04-27T05:36:20.279Z,21.30
2019-04-27T05:38:52.953Z,20.65
2019-04-27T05:41:24.508Z,20.72
2019-04-27T05:43:59.176Z,20.58
2019-04-27T05:46:35.684Z,20.53
2019-04-27T05:49:07.752Z,20.31
2019-04-27T05:51:40.524Z,20.10
2019-04-27T05:54:12.412Z,20.20
2019-04-27T05:56:43.963Z,19.93
2019-04-27T05:59:15.313Z,19.70
2019-04-27T06:01:48.993Z,19.91
2019-04-27T06:04:19.658Z,20.14
2019-04-27T06:06:50.943Z,20.63
2019-04-27T06:09:22.444Z,21.20
2019-04-27T06:11:53.791Z,21.59
2019-04-27T06:14:25.041Z,21.78
2019-04-27T06:16:56.413Z,21.22
2019-04-27T06:19:29.090Z,21.22
2019-04-27T06:22:01.426Z,21.60
2019-04-27T06:24:32.798Z,23.01
2019-04-27T06:27:04.236Z,24.80
2019-04-27T06:29:35.689Z,26.58
2019-04-27T06:32:07.037Z,26.54
2019-04-27T06:34:39.089Z,25.76
2019-04-27T06:37:10.448Z,25.87
2019-04-27T06:39:41.799Z,26.26
2019-04-27T06:42:18.554Z,26.33
2019-04-27T06:44:46.030Z,25.90
2019-04-27T06:47:19.104Z,25.92
2019-04-27T06:49:50.472Z,25.43
2019-04-27T06:52:21.914Z,24.61
2019-04-27T06:54:53.472Z,24.28
2019-04-27T06:57:24.817Z,24.29
2019-04-27T06:59:56.165Z,24.31
2019-04-27T07:02:29.077Z,24.46
2019-04-27T07:05:00.403Z,24.92
2019-04-27T07:07:32.878Z,25.33
2019-04-27T07:10:05.593Z,25.57
2019-04-27T07:12:40.889Z,26.00
2019-04-27T07:15:11.528Z,27.27
2019-04-27T07:17:42.982Z,27.87
2019-04-27T07:20:14.123Z,27.70
2019-04-27T07:22:45.583Z,27.51
2019-04-27T07:25:16.714Z,27.17
2019-04-27T07:27:49.350Z,26.77
2019-04-27T07:30:20.539Z,26.37
2019-04-27T07:32:52.093Z,26.95
2019-04-27T07:35:24.493Z,27.95
2019-04-27T07:37:56.016Z,29.06
2019-04-27T07:40:28.893Z,30.22
2019-04-27T07:43:04.244Z,30.70
2019-04-27T07:45:39.431Z,31.21
2019-04-27T07:48:11.137Z,30.77
2019-04-27T07:50:42.587Z,30.83
2019-04-27T07:53:14.042Z,31.31
2019-04-27T07:55:45.698Z,31.29
2019-04-27T07:58:16.839Z,31.82
2019-04-27T08:00:49.182Z,30.78
2019-04-27T08:03:20.558Z,30.54
2019-04-27T08:05:53.134Z,30.54
2019-04-27T08:08:24.587Z,32.18
2019-04-27T08:10:55.845Z,33.00
2019-04-27T08:13:26.705Z,33.23
2019-04-27T08:15:59.011Z,33.57
2019-04-27T08:18:30.289Z,33.57
2019-04-27T08:21:02.866Z,34.09
2019-04-27T08:23:33.737Z,34.31
2019-04-27T08:26:06.481Z,34.08
2019-04-27T08:28:42.333Z,34.30
2019-04-27T08:31:22.184Z,34.49
2019-04-27T08:33:53.532Z,33.09
2019-04-27T08:36:24.302Z,32.43
2019-04-27T08:38:55.511Z,31.38
2019-04-27T08:41:26.389Z,30.67
2019-04-27T08:43:58.705Z,29.86
2019-04-27T08:46:29.864Z,29.03
2019-04-27T08:49:01.313Z,28.50
2019-04-27T08:51:32.765Z,28.18
2019-04-27T08:54:04.111Z,28.38
2019-04-27T08:56:35.266Z,28.62
2019-04-27T08:59:06.403Z,28.84
2019-04-27T09:01:39.743Z,29.28
2019-04-27T09:04:11.320Z,28.89
2019-04-27T09:06:43.656Z,28.99
2019-04-27T09:09:16.509Z,29.12
2019-04-27T09:11:55.532Z,29.58
2019-04-27T09:14:29.432Z,29.81
2019-04-27T09:17:03.048Z,29.99
2019-04-27T09:19:51.084Z,29.40
2019-04-27T09:22:22.429Z,28.70
2019-04-27T09:24:53.789Z,28.36
2019-04-27T09:27:25.230Z,28.53
2019-04-27T09:29:56.473Z,29.01
2019-04-27T09:32:28.953Z,29.20
2019-04-27T09:35:00.198Z,30.20
2019-04-27T09:37:31.648Z,30.28
2019-04-27T09:40:02.811Z,30.87
2019-04-27T09:42:36.230Z,31.83
2019-04-27T09:45:07.439Z,32.38
2019-04-27T09:47:39.078Z,32.15
2019-04-27T09:50:10.229Z,31.98
2019-04-27T09:52:42.091Z,32.27
2019-04-27T09:55:12.865Z,32.04
2019-04-27T09:57:44.014Z,32.01
2019-04-27T10:00:15.958Z,31.69
2019-04-27T10:02:47.091Z,30.62
2019-04-27T10:05:19.549Z,30.83
2019-04-27T10:07:54.076Z,30.00
2019-04-27T10:10:26.770Z,30.10
2019-04-27T10:12:58.141Z,29.22
2019-04-27T10:15:29.554Z,28.73
2019-04-27T10:18:01.010Z,29.19
2019-04-27T10:20:32.452Z,28.90
2019-04-27T10:23:03.907Z,28.68
2019-04-27T10:25:37.538Z,29.43
2019-04-27T10:28:08.754Z,30.06
2019-04-27T10:30:42.455Z,30.19
2019-04-27T10:33:15.988Z,29.19
2019-04-27T10:35:47.404Z,28.54
2019-04-27T10:38:19.713Z,28.54
2019-04-27T10:40:52.035Z,28.55
2019-04-27T10:43:23.498Z,29.20
2019-04-27T10:45:56.521Z,30.73
2019-04-27T10:48:28.079Z,31.44
2019-04-27T10:50:59.422Z,31.04
2019-04-27T10:53:30.834Z,31.04
2019-04-27T10:56:01.710Z,31.48
2019-04-27T10:58:32.820Z,32.68
2019-04-27T11:01:05.810Z,33.33
2019-04-27T11:03:57.337Z,33.69
2019-04-27T11:06:33.910Z,34.67
2019-04-27T11:09:10.372Z,30.94
2019-04-27T11:11:41.718Z,30.81
2019-04-27T11:14:13.060Z,31.29
2019-04-27T11:16:45.971Z,31.74
2019-04-27T11:19:18.231Z,31.92
2019-04-27T11:21:49.390Z,31.97
2019-04-27T11:24:20.333Z,31.35
2019-04-27T11:26:51.645Z,30.36
2019-04-27T11:29:22.788Z,29.28
2019-04-27T11:31:55.627Z,28.89
2019-04-27T11:34:45.920Z,28.81
2019-04-27T11:37:18.644Z,28.76
2019-04-27T11:39:49.686Z,28.36
2019-04-27T11:42:20.931Z,27.35
2019-04-27T11:44:52.178Z,26.61
2019-04-27T11:47:23.429Z,25.94
2019-04-27T11:49:54.769Z,25.70
2019-04-27T11:52:26.736Z,25.64
2019-04-27T11:54:58.082Z,25.56
2019-04-27T11:57:29.430Z,25.28
2019-04-27T12:00:00.782Z,25.02
2019-04-27T12:02:35.694Z,24.81
2019-04-27T12:05:10.133Z,24.56
2019-04-27T12:07:41.479Z,24.38
2019-04-27T12:10:13.135Z,24.12
2019-04-27T12:12:46.203Z,23.93
2019-04-27T12:15:18.889Z,23.76
2019-04-27T12:17:50.063Z,23.51
2019-04-27T12:20:21.288Z,23.18
2019-04-27T12:22:52.742Z,23.05
2019-04-27T12:25:23.885Z,23.16
2019-04-27T12:28:02.710Z,23.24
2019-04-27T12:30:37.053Z,23.29
2019-04-27T12:33:08.278Z,23.34
2019-04-27T12:35:39.730Z,23.46
2019-04-27T12:38:11.073Z,23.58
2019-04-27T12:40:42.525Z,23.40
2019-04-27T12:43:13.870Z,23.17
2019-04-27T12:45:45.977Z,23.10
2019-04-27T12:48:17.081Z,23.13
2019-04-27T12:50:48.427Z,22.75
2019-04-27T12:53:24.590Z,22.11
2019-04-27T12:56:14.063Z,21.74
2019-04-27T12:58:53.603Z,21.38
2019-04-27T13:01:26.706Z,21.04
2019-04-27T13:03:59.723Z,20.39
2019-04-27T13:06:33.382Z,19.95
2019-04-27T13:09:07.175Z,19.31
2019-04-27T13:11:38.331Z,18.70
2019-04-27T13:14:10.089Z,18.41
2019-04-27T13:16:41.783Z,18.01
2019-04-27T13:19:13.198Z,17.74
2019-04-27T13:21:46.797Z,17.65
2019-04-27T13:24:19.068Z,17.35
2019-04-27T13:26:50.550Z,17.24
2019-04-27T13:29:22.073Z,17.10
2019-04-27T13:31:53.519Z,17.13
2019-04-27T13:34:24.766Z,17.20
2019-04-27T13:36:57.033Z,17.16
2019-04-27T13:39:36.996Z,17.06
2019-04-27T13:42:08.547Z,17.02
2019-04-27T13:44:39.792Z,16.99
2019-04-27T13:47:29.525Z,17.16
2019-04-27T13:50:02.446Z,17.05
2019-04-27T13:52:33.905Z,16.97
2019-04-27T13:55:06.194Z,17.05
2019-04-27T13:57:49.438Z,17.53
2019-04-27T14:00:09.785Z,17.35
2019-04-27T14:02:41.030Z,17.30
2019-04-27T14:05:12.794Z,17.00
2019-04-27T14:07:43.934Z,17.15
2019-04-27T14:10:15.690Z,17.04
2019-04-27T14:12:48.772Z,16.93
2019-04-27T14:15:22.586Z,16.61
2019-04-27T14:17:53.937Z,16.57
2019-04-27T14:20:25.194Z,16.47
2019-04-27T14:23:03.279Z,16.32
2019-04-27T14:25:31.561Z,16.19
2019-04-27T14:28:04.654Z,16.28
2019-04-27T14:30:38.107Z,16.72
2019-04-27T14:33:09.296Z,16.61
2019-04-27T14:35:42.484Z,16.19
2019-04-27T14:38:13.834Z,15.88
2019-04-27T14:40:45.387Z,15.95
2019-04-27T14:43:18.962Z,16.08
2019-04-27T14:45:50.435Z,16.09
2019-04-27T14:48:21.692Z,16.11
2019-04-27T14:50:53.244Z,16.19
2019-04-27T14:53:24.788Z,16.36
2019-04-27T14:55:58.589Z,16.60
2019-04-27T14:58:30.145Z,16.56
2019-04-27T15:01:01.394Z,16.42
2019-04-27T15:03:32.851Z,16.42
2019-04-27T15:06:07.061Z,16.41
2019-04-27T15:08:42.653Z,16.41
2019-04-27T15:11:17.347Z,16.59
2019-04-27T15:13:48.038Z,16.71
2019-04-27T15:16:18.813Z,16.62
2019-04-27T15:19:00.015Z,16.69
2019-04-27T15:21:40.407Z,16.72
2019-04-27T15:24:13.629Z,16.66
2019-04-27T15:26:44.982Z,16.77
2019-04-27T15:29:25.048Z,16.76
2019-04-27T15:32:02.666Z,16.74
2019-04-27T15:34:35.745Z,16.84
2019-04-27T15:37:08.804Z,16.93
2019-04-27T15:39:42.000Z,17.10
2019-04-27T15:42:15.088Z,17.31
2019-04-27T15:44:50.217Z,17.25
2019-04-27T15:47:20.659Z,17.25
2019-04-27T15:49:54.571Z,17.22
2019-04-27T15:52:29.558Z,17.39
2019-04-27T15:55:02.727Z,17.39
2019-04-27T15:57:38.180Z,17.41
2019-04-27T16:00:17.244Z,17.30
2019-04-27T16:02:49.336Z,17.29
2019-04-27T16:05:19.140Z,17.30
2019-04-27T16:07:50.585Z,17.38
2019-04-27T16:10:21.835Z,17.39
2019-04-27T16:13:05.941Z,17.60
2019-04-27T16:15:27.915Z,17.51
2019-04-27T16:18:01.406Z,17.37
2019-04-27T16:20:34.045Z,17.24
2019-04-27T16:23:06.558Z,17.23
2019-04-27T16:25:48.598Z,17.23
2019-04-27T16:28:13.583Z,17.21
2019-04-27T16:30:50.625Z,17.19
2019-04-27T16:33:23.517Z,17.06
2019-04-27T16:36:00.291Z,17.08
2019-04-27T16:38:34.593Z,16.95
2019-04-27T16:41:05.965Z,16.90
2019-04-27T16:43:45.638Z,16.95
2019-04-27T16:46:21.372Z,17.12
2019-04-27T16:48:53.733Z,17.26
2019-04-27T16:51:25.389Z,17.12
2019-04-27T16:53:58.413Z,16.88
2019-04-27T16:56:31.363Z,16.89
2019-04-27T16:59:25.798Z,16.78
2019-04-27T17:01:41.748Z,16.76
2019-04-27T17:04:11.383Z,16.84
2019-04-27T17:06:46.104Z,16.76
2019-04-27T17:09:18.939Z,16.69
2019-04-27T17:11:52.861Z,16.71
2019-04-27T17:14:28.998Z,16.70
2019-04-27T17:17:10.474Z,16.62
2019-04-27T17:19:43.740Z,16.55
2019-04-27T17:22:14.770Z,16.56
2019-04-27T17:24:49.383Z,16.45
2019-04-27T17:27:28.906Z,16.27
2019-04-27T17:29:59.479Z,16.07
2019-04-27T17:32:33.719Z,16.00
2019-04-27T17:35:12.933Z,15.97
2019-04-27T17:37:40.551Z,16.10
2019-04-27T17:40:15.525Z,16.12
2019-04-27T17:42:48.773Z,16.13
2019-04-27T17:45:21.707Z,16.06
2019-04-27T17:47:53.209Z,16.03
2019-04-27T17:50:25.252Z,16.04
2019-04-27T17:52:59.074Z,16.04
2019-04-27T17:55:31.659Z,16.02
2019-04-27T17:58:05.226Z,15.98
2019-04-27T18:00:41.671Z,15.86
2019-04-27T18:03:17.600Z,15.88
2019-04-27T18:05:51.935Z,15.74
2019-04-27T18:08:25.266Z,15.66
2019-04-27T18:11:03.084Z,15.45
2019-04-27T18:13:32.499Z,15.31
2019-04-27T18:16:03.954Z,15.36
2019-04-27T18:18:53.013Z,15.31
2019-04-27T18:21:28.282Z,15.31
2019-04-27T18:24:04.527Z,15.19
2019-04-27T18:26:48.784Z,15.09
2019-04-27T18:29:13.563Z,15.07
2019-04-27T18:31:46.412Z,15.14
2019-04-27T18:34:21.684Z,15.20
2019-04-27T18:36:53.234Z,15.14
2019-04-27T18:39:28.679Z,15.10
2019-04-27T18:42:01.460Z,15.13
2019-04-27T18:44:36.089Z,15.30
2019-04-27T18:47:08.410Z,15.54
2019-04-27T18:49:55.276Z,15.35
2019-04-27T18:52:42.397Z,15.21
2019-04-27T18:55:16.718Z,15.25
2019-04-27T18:57:51.144Z,15.25
2019-04-27T19:00:21.347Z,15.31
2019-04-27T19:02:53.725Z,15.62
2019-04-27T19:05:37.237Z,15.48
2019-04-27T19:07:58.161Z,15.32
2019-04-27T19:10:32.274Z,15.21
2019-04-27T19:13:06.077Z,15.21
2019-04-27T19:15:40.306Z,15.29
2019-04-27T19:18:11.643Z,15.40
2019-04-27T19:20:44.423Z,15.49
2019-04-27T19:23:16.388Z,15.34
2019-04-27T19:25:55.412Z,15.18
2019-04-27T19:28:31.572Z,15.20
2019-04-27T19:31:19.617Z,15.07
2019-04-27T19:33:54.337Z,15.06
2019-04-27T19:36:27.930Z,15.12
2019-04-27T19:39:00.109Z,15.11
2019-04-27T19:41:33.670Z,15.03
2019-04-27T19:44:06.386Z,14.98
2019-04-27T19:46:39.888Z,15.01
2019-04-27T19:49:11.545Z,14.90
2019-04-27T19:51:43.649Z,14.89
2019-04-27T19:54:15.267Z,14.86
2019-04-27T19:56:46.716Z,14.78
2019-04-27T19:59:19.909Z,14.78
2019-04-27T20:01:53.198Z,14.73
2019-04-27T20:04:30.885Z,15.04
2019-04-27T20:07:02.656Z,15.06
2019-04-27T20:09:35.640Z,14.90
2019-04-27T20:12:08.173Z,14.83
2019-04-27T20:14:58.201Z,14.81
2019-04-27T20:17:31.192Z,14.76
2019-04-27T20:20:02.641Z,14.57
2019-04-27T20:22:35.732Z,14.63
2019-04-27T20:25:07.285Z,14.72
2019-04-27T20:27:48.357Z,14.77
2019-04-27T20:30:13.667Z,14.79
2019-04-27T20:32:47.730Z,14.80
2019-04-27T20:35:18.542Z,14.80
2019-04-27T20:37:51.689Z,14.78
2019-04-27T20:40:23.167Z,14.82
2019-04-27T20:42:54.809Z,14.78
2019-04-27T20:45:26.570Z,14.82
2019-04-27T20:47:58.216Z,14.86
2019-04-27T20:50:30.850Z,14.89
2019-04-27T20:53:04.807Z,14.87
2019-04-27T20:55:36.256Z,14.89
2019-04-27T20:58:07.706Z,14.91
2019-04-27T21:00:41.852Z,14.82
2019-04-27T21:03:14.706Z,14.77
2019-04-27T21:05:47.999Z,14.77
2019-04-27T21:08:21.194Z,14.85
2019-04-27T21:10:52.644Z,14.81
2019-04-27T21:13:24.093Z,14.74
2019-04-27T21:15:55.745Z,14.76
2019-04-27T21:18:27.821Z,14.78
2019-04-27T21:20:59.158Z,14.83
2019-04-27T21:23:31.320Z,14.80
2019-04-27T21:26:02.886Z,14.73
2019-04-27T21:28:34.440Z,14.76
2019-04-27T21:31:05.983Z,14.80
2019-04-27T21:33:37.440Z,14.71
2019-04-27T21:36:09.198Z,14.70
2019-04-27T21:38:42.682Z,14.69
2019-04-27T21:41:14.148Z,14.68
2019-04-27T21:43:45.494Z,14.59
2019-04-27T21:46:16.839Z,14.54
2019-04-27T21:48:48.495Z,14.56
2019-04-27T21:51:21.690Z,14.67
2019-04-27T21:54:11.939Z,14.68
2019-04-27T21:56:43.533Z,14.47
2019-04-27T21:59:15.189Z,14.35
2019-04-27T22:01:47.154Z,14.61
2019-04-27T22:04:18.496Z,14.59
2019-04-27T22:06:51.258Z,14.43
2019-04-27T22:09:23.246Z,14.40
2019-04-27T22:11:54.898Z,14.46
2019-04-27T22:14:26.657Z,14.43
2019-04-27T22:16:57.897Z,14.39
2019-04-27T22:19:31.115Z,14.28
2019-04-27T22:22:04.080Z,14.29
2019-04-27T22:24:37.067Z,14.27
2019-04-27T22:27:08.717Z,14.45
2019-04-27T22:29:40.274Z,14.44
2019-04-27T22:32:11.823Z,14.45
2019-04-27T22:34:43.072Z,14.38
2019-04-27T22:37:14.621Z,14.32
2019-04-27T22:40:01.041Z,14.38
2019-04-27T22:42:51.586Z,14.33
2019-04-27T22:45:24.817Z,14.33
2019-04-27T22:47:56.367Z,14.34
2019-04-27T22:50:27.823Z,14.35
2019-04-27T22:52:59.372Z,14.34
2019-04-27T22:55:31.119Z,14.37
2019-04-27T22:58:11.721Z,14.43
2019-04-27T23:00:51.266Z,14.45
2019-04-27T23:03:24.419Z,14.47
2019-04-27T23:05:55.975Z,14.40
2019-04-27T23:08:27.531Z,14.40
2019-04-27T23:11:00.569Z,14.40
2019-04-27T23:13:32.070Z,14.46
2019-04-27T23:45:45.599Z,-90.39
2019-04-27T23:49:34.774Z,-141.72
